Terminal Aerodrome Forecast
Issued by NWS Wilmington, OH

Current Version | Previous Version | Graphics & Text | Print | Product List | Glossary On
Versions: 1 2 3 4 5 6 7 8 9 10 11 12 13 14 15 16
000
FTUS41 KILN 241700
TAFILN
TAF
KILN 241735Z 2418/2518 12012G18KT P6SM SCT100 BKN250
     FM242300 14008KT P6SM BKN200
     FM250800 16010KT 5SM -SHRA OVC050
     FM251100 18013KT P6SM VCSH OVC015CB
     FM251400 21014KT 4SM -SHRA VCTS OVC015CB
     FM251700 30018G27KT P6SM BKN018=

USA.gov is the U.S. government's official web portal to all federal, state and local government web resources and services.